Time;durP1;ratioP1;P1;durP2;ratioP2;P2;SDS_P1;SDS_P2;PMS_P1;PMS_P2;Temp;Humidity;BMP_temperature;BMP_pressure;BME280_temperature;BME280_humidity;BME280_pressure;Samples;Min_cycle;Max_cycle;Signal;HPM_P1;HPM_P2
2021/10/01 00:01:31;;;;;;;18.35;9.20;;;;;;;3.65;73.85;102618.91;1697506;84;21228;-63
2021/10/01 00:04:05;;;;;;;20.08;9.60;;;;;;;3.64;73.86;102628.84;1762368;81;22500;-64
2021/10/01 00:06:39;;;;;;;21.80;9.85;;;;;;;3.60;73.94;102628.95;1697161;84;21325;-64
2021/10/01 00:09:13;;;;;;;19.80;9.38;;;;;;;3.59;73.95;102621.62;1762660;81;21307;-63
2021/10/01 00:11:52;;;;;;;;;;;;;;;3.57;73.89;102627.28;1700360;84;21886;-65
2021/10/01 00:14:26;;;;;;;18.62;9.30;;;;;;;3.55;73.93;102626.91;1697626;84;20228;-64
2021/10/01 00:17:01;;;;;;;24.25;9.93;;;;;;;3.50;73.93;102624.42;1762177;81;21264;-65
2021/10/01 00:19:34;;;;;;;22.22;9.45;;;;;;;3.46;73.90;102627.11;1697510;84;21834;-63
2021/10/01 00:22:08;;;;;;;19.45;9.93;;;;;;;3.42;73.90;102630.20;1697628;84;21759;-63
2021/10/01 00:24:42;;;;;;;23.25;9.05;;;;;;;3.38;73.89;102631.16;1763084;81;21347;-64
2021/10/01 00:27:17;;;;;;;19.48;8.95;;;;;;;3.36;74.06;102634.23;1697201;84;21280;-63
2021/10/01 00:29:50;;;;;;;17.70;9.08;;;;;;;3.36;74.12;102631.64;1762811;81;21303;-63
2021/10/01 00:32:24;;;;;;;;;;;;;;;3.35;74.19;102632.08;1765048;81;22527;-64
2021/10/01 00:34:57;;;;;;;18.00;8.48;;;;;;;3.35;74.29;102633.37;1763068;81;20227;-64
2021/10/01 00:37:31;;;;;;;17.23;9.13;;;;;;;3.32;74.35;102634.72;1762497;81;21803;-64
2021/10/01 00:40:07;;;;;;;19.35;9.65;;;;;;;3.32;74.37;102633.86;1697671;84;21217;-64
2021/10/01 00:42:41;;;;;;;17.62;8.75;;;;;;;3.32;74.31;102636.02;1762227;81;21708;-63
2021/10/01 00:45:14;;;;;;;;;;;;;;;3.32;74.29;102637.31;1700133;84;21320;-63
2021/10/01 00:47:47;;;;;;;17.07;7.53;;;;;;;3.31;74.32;102632.17;1697320;84;20283;-63
2021/10/01 00:50:22;;;;;;;16.62;8.05;;;;;;;3.28;74.42;102634.38;1761993;81;21205;-64
2021/10/01 00:52:56;;;;;;;13.45;7.37;;;;;;;3.29;74.45;102629.63;1763113;81;21800;-63
2021/10/01 00:55:30;;;;;;;14.70;7.50;;;;;;;3.31;74.51;102634.77;1697335;84;21339;-63
2021/10/01 00:58:04;;;;;;;13.72;7.80;;;;;;;3.34;74.60;102634.70;1763059;81;21189;-64
2021/10/01 01:01:12;;;;;;;15.38;8.33;;;;;;;3.34;74.51;102638.12;1762513;81;21795;-63
2021/10/01 01:03:18;;;;;;;17.92;7.58;;;;;;;3.32;74.44;102634.72;1755558;81;21288;-64
2021/10/01 01:06:20;;;;;;;14.43;7.92;;;;;;;3.31;74.42;102639.51;1763295;81;21181;-63
2021/10/01 01:09:22;;;;;;;15.25;7.30;;;;;;;3.30;74.38;102637.79;1697902;84;21300;-63
2021/10/01 01:12:38;;;;;;;12.07;6.85;;;;;;;3.27;74.34;102637.84;1697915;84;21324;-63
2021/10/01 01:15:24;;;;;;;15.28;7.67;;;;;;;3.26;74.45;102635.30;1762722;81;21827;-64
2021/10/01 01:18:02;;;;;;;17.95;7.90;;;;;;;3.25;74.55;102634.44;1697375;84;21363;-64
2021/10/01 01:20:52;;;;;;;17.17;9.05;;;;;;;3.25;74.53;102630.99;1696998;84;21867;-64
2021/10/01 01:24:16;;;;;;;13.72;7.37;;;;;;;3.25;74.58;102625.81;1697367;84;21336;-63
2021/10/01 01:27:36;;;;;;;14.80;7.87;;;;;;;3.25;74.65;102630.55;1695222;84;21253;-63
2021/10/01 01:30:17;;;;;;;17.40;7.85;;;;;;;3.23;74.57;102634.92;1697239;84;21237;-64
2021/10/01 01:32:52;;;;;;;12.90;7.80;;;;;;;3.20;74.53;102630.27;1761681;81;21319;-64
2021/10/01 01:35:26;;;;;;;;;;;;;;;3.19;74.57;102631.13;1699501;84;21363;-64
2021/10/01 01:38:02;;;;;;;14.70;7.20;;;;;;;3.19;74.56;102633.72;1697634;84;20266;-64
2021/10/01 01:40:35;;;;;;;14.50;7.05;;;;;;;3.16;74.62;102629.89;1763089;81;21327;-63
2021/10/01 01:43:11;;;;;;;14.90;7.25;;;;;;;3.15;74.58;102631.62;1762885;81;21212;-65
2021/10/01 01:45:44;;;;;;;11.63;7.00;;;;;;;3.16;74.64;102630.75;1697765;84;21288;-64
2021/10/01 01:48:17;;;;;;;13.43;6.60;;;;;;;3.15;74.63;102639.39;1762714;81;21312;-63
2021/10/01 01:50:50;;;;;;;16.40;6.63;;;;;;;3.13;74.63;102639.86;1697447;84;22593;-64
2021/10/01 01:53:23;;;;;;;14.03;6.45;;;;;;;3.14;74.68;102644.61;1697517;84;21273;-64
2021/10/01 01:55:56;;;;;;;10.53;6.28;;;;;;;3.11;74.57;102648.11;1762512;81;21807;-64
2021/10/01 01:58:29;;;;;;;12.63;6.60;;;;;;;3.11;74.62;102645.52;1697479;84;21391;-65
2021/10/01 02:01:06;;;;;;;13.20;7.15;;;;;;;3.10;74.64;102642.97;1694341;84;21209;-64
2021/10/01 02:03:40;;;;;;;11.30;7.03;;;;;;;3.08;74.72;102642.98;1739360;81;21828;-64
2021/10/01 02:06:15;;;;;;;13.45;7.03;;;;;;;3.09;74.75;102644.70;1697035;84;21820;-64
2021/10/01 02:08:48;;;;;;;12.10;6.70;;;;;;;3.08;74.68;102645.58;1763171;81;21256;-64
2021/10/01 02:11:22;;;;;;;11.63;6.22;;;;;;;3.07;74.66;102646.47;1740016;81;21173;-64
2021/10/01 02:13:55;;;;;;;13.80;6.60;;;;;;;3.04;74.59;102646.52;1698055;84;21331;-65
2021/10/01 02:16:28;;;;;;;10.53;6.43;;;;;;;3.02;74.62;102644.42;1697366;84;21327;-64
2021/10/01 02:19:02;;;;;;;15.23;7.03;;;;;;;3.00;74.58;102646.62;1762711;81;21166;-64
2021/10/01 02:21:35;;;;;;;12.55;6.22;;;;;;;2.98;74.61;102647.95;1697403;84;21206;-64
2021/10/01 02:24:08;;;;;;;11.93;6.35;;;;;;;2.96;74.67;102648.40;1763317;81;21297;-64
2021/10/01 02:26:55;;;;;;;12.68;7.37;;;;;;;2.95;74.75;102651.89;1697339;84;21233;-64
2021/10/01 02:29:54;;;;;;;15.95;6.30;;;;;;;2.94;74.82;102654.05;1730627;81;21261;-63
2021/10/01 02:32:37;;;;;;;17.52;6.35;;;;;;;2.96;74.83;102659.22;1762655;81;21345;-64
2021/10/01 02:35:10;;;;;;;13.43;7.33;;;;;;;2.92;74.71;102657.55;1697778;84;21396;-64
2021/10/01 02:37:44;;;;;;;16.37;6.83;;;;;;;2.90;74.69;102651.55;1697875;84;21875;-64
2021/10/01 02:40:18;;;;;;;12.78;6.75;;;;;;;2.87;74.66;102656.34;1763260;81;22146;-63
2021/10/01 02:42:51;;;;;;;12.53;6.65;;;;;;;2.83;74.70;102648.23;1741655;81;21209;-64
2021/10/01 02:45:24;;;;;;;13.80;6.53;;;;;;;2.82;74.73;102654.75;1763087;81;21328;-65
2021/10/01 02:47:58;;;;;;;14.13;7.33;;;;;;;2.81;74.75;102658.20;1699153;83;21280;-63
2021/10/01 02:50:31;;;;;;;14.38;7.50;;;;;;;2.79;74.80;102658.67;1750587;81;21813;-63
2021/10/01 02:53:29;;;;;;;14.25;8.30;;;;;;;2.78;74.88;102664.28;1756557;81;21298;-63
2021/10/01 02:56:13;;;;;;;19.30;10.58;;;;;;;2.77;74.89;102659.15;1756485;81;21282;-64
2021/10/01 02:58:50;;;;;;;19.12;10.03;;;;;;;2.76;74.86;102665.19;1756764;81;21277;-64
2021/10/01 03:01:23;;;;;;;17.57;10.30;;;;;;;2.73;74.82;102663.51;1756216;81;21342;-65
2021/10/01 03:04:10;;;;;;;19.85;10.88;;;;;;;2.72;74.90;102667.83;1756611;81;21195;-65
2021/10/01 03:06:46;;;;;;;18.65;9.90;;;;;;;2.71;74.77;102666.57;1756129;81;21278;-63
2021/10/01 03:09:22;;;;;;;17.82;9.28;;;;;;;2.67;74.69;102664.93;1754862;81;21334;-64
2021/10/01 03:12:00;;;;;;;16.17;9.20;;;;;;;2.61;74.70;102666.31;1760643;80;21199;-64
2021/10/01 03:14:33;;;;;;;18.35;9.90;;;;;;;2.60;74.78;102671.09;1743522;81;21259;-64
2021/10/01 03:17:06;;;;;;;17.37;7.83;;;;;;;2.55;74.79;102669.02;1758123;81;21211;-64
2021/10/01 03:19:40;;;;;;;14.03;7.03;;;;;;;2.54;74.84;102668.16;1757748;81;21358;-64
2021/10/01 03:22:15;;;;;;;12.30;6.78;;;;;;;2.54;74.84;102672.47;1757832;81;21171;-63
2021/10/01 03:24:49;;;;;;;13.28;6.25;;;;;;;2.54;74.92;102675.92;1758322;81;21766;-63
2021/10/01 03:27:24;;;;;;;11.73;7.00;;;;;;;2.56;74.94;102679.33;1758861;81;21215;-64
2021/10/01 03:30:03;;;;;;;15.00;8.25;;;;;;;2.57;74.97;102677.17;1758110;81;21262;-65
2021/10/01 03:32:37;;;;;;;15.95;9.58;;;;;;;2.59;74.93;102681.01;1758474;81;21330;-63
2021/10/01 03:35:12;;;;;;;;;;;;;;;2.60;74.91;102684.84;1760803;81;21171;-64
2021/10/01 03:37:45;;;;;;;19.32;9.05;;;;;;;2.63;74.83;102685.23;1758008;81;20226;-64
2021/10/01 03:40:20;;;;;;;15.98;8.50;;;;;;;2.62;74.80;102686.13;1758008;81;21211;-63
2021/10/01 03:42:53;;;;;;;16.87;8.25;;;;;;;2.65;74.76;102688.21;1758083;81;21251;-64
2021/10/01 03:45:27;;;;;;;16.62;8.03;;;;;;;2.69;74.68;102695.06;1757990;81;21790;-64
2021/10/01 03:48:03;;;;;;;11.40;7.90;;;;;;;2.73;74.63;102690.23;1758120;81;21309;-63
2021/10/01 03:50:36;;;;;;;13.98;8.48;;;;;;;2.78;74.53;102695.75;1759945;81;21295;-63
2021/10/01 03:53:09;;;;;;;15.53;8.33;;;;;;;2.79;74.35;102690.58;1765035;81;21170;-64
2021/10/01 03:55:43;;;;;;;20.90;9.50;;;;;;;2.83;74.35;102685.75;1699257;84;21281;-64
2021/10/01 03:58:16;;;;;;;21.85;9.45;;;;;;;2.93;74.38;102698.08;1716211;83;21232;-65
2021/10/01 04:00:50;;;;;;;24.65;12.50;;;;;;;3.06;74.32;102702.13;1716194;83;21292;-64
2021/10/01 04:03:23;;;;;;;35.40;14.33;;;;;;;3.22;74.22;102700.53;1716236;83;21355;-64
2021/10/01 04:05:57;;;;;;;30.12;14.80;;;;;;;3.41;74.01;102702.31;1716569;83;21319;-64
2021/10/01 04:08:30;;;;;;;35.85;16.70;;;;;;;3.61;73.78;102696.25;1715885;83;21296;-64
2021/10/01 04:11:03;;;;;;;31.07;15.25;;;;;;;3.82;73.43;102697.08;1716378;83;21296;-64
2021/10/01 04:13:36;;;;;;;32.07;16.30;;;;;;;4.35;73.23;102700.16;1716101;83;21339;-66
2021/10/01 04:16:11;;;;;;;31.73;14.90;;;;;;;5.31;72.21;102700.20;1714394;83;22325;-65
2021/10/01 04:18:45;;;;;;;33.92;16.95;;;;;;;6.42;70.36;102696.39;1716720;83;21712;-66
2021/10/01 04:21:19;;;;;;;38.08;18.73;;;;;;;7.48;67.96;102686.94;1716007;83;21225;-64
2021/10/01 04:23:53;;;;;;;33.28;17.23;;;;;;;8.44;65.49;102689.69;1699306;84;21241;-64
2021/10/01 04:26:39;;;;;;;33.42;16.77;;;;;;;9.24;62.66;102687.04;1715485;83;21296;-65
2021/10/01 04:29:13;;;;;;;30.23;17.00;;;;;;;9.68;60.18;102688.09;1716370;83;21324;-66
2021/10/01 04:31:46;;;;;;;28.32;15.70;;;;;;;9.87;58.63;102688.47;1716331;83;21534;-66
2021/10/01 04:34:20;;;;;;;21.35;12.80;;;;;;;9.94;57.21;102685.95;1715959;83;21275;-67
2021/10/01 04:36:55;;;;;;;21.87;11.57;;;;;;;10.01;56.16;102690.42;1699670;83;21284;-67
2021/10/01 04:39:29;;;;;;;18.77;11.63;;;;;;;10.14;55.34;102691.58;1716182;83;21252;-67
2021/10/01 04:42:02;;;;;;;20.88;9.88;;;;;;;10.53;54.41;102696.14;1716436;83;21319;-68
2021/10/01 04:44:36;;;;;;;18.70;9.58;;;;;;;11.04;53.14;102691.80;1725806;82;21260;-67
2021/10/01 04:47:10;;;;;;;15.93;7.95;;;;;;;11.24;51.99;102694.23;1709854;83;21272;-65
2021/10/01 04:49:43;;;;;;;15.53;7.70;;;;;;;11.52;51.24;102682.63;1766482;80;21240;-66
2021/10/01 04:52:16;;;;;;;14.05;8.30;;;;;;;12.04;50.27;102685.41;1745771;82;21328;-67
2021/10/01 04:54:49;;;;;;;15.72;8.35;;;;;;;12.59;49.16;102689.64;1777009;80;21678;-69
2021/10/01 04:57:23;;;;;;;14.05;8.10;;;;;;;12.52;48.21;102691.41;1766906;81;21214;-68
2021/10/01 05:00:01;;;;;;;16.30;7.45;;;;;;;12.37;47.99;102693.63;1707249;82;21341;-67
2021/10/01 05:02:53;;;;;;;13.40;7.50;;;;;;;12.62;47.91;102696.05;1718580;82;21276;-69
2021/10/01 05:05:28;;;;;;;12.85;7.05;;;;;;;12.83;47.22;102703.97;1759652;81;21291;-68
2021/10/01 05:08:06;;;;;;;13.03;6.70;;;;;;;13.40;46.54;102698.77;1681846;83;21283;-67
2021/10/01 05:10:57;;;;;;;15.83;6.67;;;;;;;14.39;45.19;102695.90;1765832;80;21755;-65
2021/10/01 05:13:50;;;;;;;11.27;7.73;;;;;;;15.47;43.29;102691.02;1713562;82;21220;-66
2021/10/01 05:16:43;;;;;;;15.60;8.28;;;;;;;16.36;41.29;102687.53;1711890;82;22548;-67
2021/10/01 05:19:35;;;;;;;21.05;8.78;;;;;;;17.15;39.69;102699.52;1710992;82;22254;-64
2021/10/01 05:22:25;;;;;;;14.78;8.73;;;;;;;17.92;38.02;102697.80;1771418;80;21327;-68
2021/10/01 05:24:59;;;;;;;13.83;8.00;;;;;;;18.59;36.72;102703.70;1756949;81;21631;-65
2021/10/01 05:27:32;;;;;;;23.15;12.33;;;;;;;19.13;35.69;102706.96;1771592;80;21279;-67
2021/10/01 05:30:07;;;;;;;17.98;11.05;;;;;;;19.64;34.67;102701.61;1749608;81;21979;-67
2021/10/01 05:32:40;;;;;;;17.42;11.28;;;;;;;20.07;33.71;102707.43;1769806;80;21227;-65
2021/10/01 05:35:13;;;;;;;18.07;9.98;;;;;;;20.29;33.23;102705.02;1754091;81;21318;-63
2021/10/01 05:37:49;;;;;;;;;;;;;;;20.75;32.63;102713.61;1782097;80;21327;-62
2021/10/01 05:40:22;;;;;;;10.72;7.28;;;;;;;21.29;31.67;102707.58;1773616;80;20306;-65
2021/10/01 05:42:55;;;;;;;11.70;6.42;;;;;;;21.77;31.06;102703.33;1771377;80;21288;-60
2021/10/01 05:45:28;;;;;;;11.35;6.30;;;;;;;22.25;30.45;102698.53;1739371;82;21314;-61
2021/10/01 05:48:05;;;;;;;12.93;6.33;;;;;;;22.72;29.79;102709.28;1739261;79;21800;-62
2021/10/01 05:50:57;;;;;;;9.10;5.95;;;;;;;23.14;29.20;102702.69;1769737;80;21684;-63
2021/10/01 05:54:01;;;;;;;8.68;5.67;;;;;;;23.59;28.73;102709.61;1765340;80;22495;-61
2021/10/01 05:56:40;;;;;;;10.23;5.33;;;;;;;23.89;27.94;102703.18;1709834;82;21303;-62
2021/10/01 05:59:26;;;;;;;6.42;5.05;;;;;;;24.27;27.43;102696.89;1837751;76;20650;-65
2021/10/01 06:02:02;;;;;;;6.20;4.83;;;;;;;24.25;27.05;102697.56;1804772;78;21164;-63
2021/10/01 06:04:35;;;;;;;7.15;4.67;;;;;;;24.43;26.66;102703.08;1809282;78;21326;-62
2021/10/01 06:07:11;;;;;;;8.45;4.85;;;;;;;24.72;26.33;102710.59;1803399;78;21199;-62
2021/10/01 06:09:44;;;;;;;7.40;5.03;;;;;;;25.17;25.84;102708.72;1810996;78;21338;-67
2021/10/01 06:12:20;;;;;;;7.12;5.25;;;;;;;25.63;25.03;102711.05;1743083;80;21873;-61
2021/10/01 06:14:53;;;;;;;8.00;5.22;;;;;;;25.88;24.92;102711.25;1747171;81;21348;-61
2021/10/01 06:17:26;;;;;;;6.40;5.30;;;;;;;26.20;24.73;102710.23;1768051;80;21739;-62
2021/10/01 06:20:02;;;;;;;7.60;5.25;;;;;;;26.53;24.22;102707.61;1744712;80;22154;-62
2021/10/01 06:22:34;;;;;;;8.25;5.33;;;;;;;26.82;24.00;102706.86;1759214;80;22028;-64
2021/10/01 06:25:10;;;;;;;8.25;5.05;;;;;;;27.16;23.74;102705.80;1754561;80;21297;-61
2021/10/01 06:27:43;;;;;;;8.25;5.20;;;;;;;27.66;23.29;102714.43;1760113;80;21300;-63
2021/10/01 06:30:17;;;;;;;6.70;4.75;;;;;;;28.06;22.57;102710.37;1779963;79;21252;-64
2021/10/01 06:32:51;;;;;;;7.20;4.60;;;;;;;28.35;22.28;102708.35;1741183;81;21826;-62
2021/10/01 06:35:24;;;;;;;7.28;4.90;;;;;;;28.78;21.94;102712.38;1739615;80;22230;-68
2021/10/01 06:37:57;;;;;;;7.70;4.35;;;;;;;29.14;21.47;102707.09;1763228;80;21350;-68
2021/10/01 06:40:30;;;;;;;6.67;4.75;;;;;;;29.44;21.23;102705.50;1751961;81;21346;-64
2021/10/01 06:43:10;;;;;;;22.95;5.00;;;;;;;29.81;20.81;102706.38;1748492;81;21341;-69
2021/10/01 06:45:48;;;;;;;8.48;4.72;;;;;;;29.96;20.56;102703.83;1740677;81;21196;-70
2021/10/01 06:48:38;;;;;;;7.45;4.67;;;;;;;30.20;20.31;102709.16;1738033;81;21439;-68
2021/10/01 07:36:37;;;;;;;3.17;2.30;;;;;;;32.71;17.26;102674.92;1737722;80;21296;-67
2021/10/01 07:39:17;;;;;;;7.83;2.85;;;;;;;32.84;16.92;102682.91;1734534;80;21324;-61
2021/10/01 07:45:31;;;;;;;5.17;2.27;;;;;;;33.01;16.29;102679.06;1737031;80;21962;-66
2021/10/01 08:21:24;;;;;;;5.55;1.87;;;;;;;33.08;15.85;102645.91;1746368;81;21748;-70
2021/10/01 08:23:58;;;;;;;4.25;1.87;;;;;;;33.01;15.41;102645.14;1739123;81;21840;-71
2021/10/01 08:26:33;;;;;;;4.53;1.80;;;;;;;32.74;15.57;102643.80;1745814;81;21305;-66
2021/10/01 08:29:08;;;;;;;2.17;1.57;;;;;;;32.55;15.30;102641.05;1745714;81;21153;-70
2021/10/01 08:31:41;;;;;;;10.10;2.17;;;;;;;32.40;15.48;102632.95;1744029;81;21881;-67
2021/10/01 08:34:17;;;;;;;2.00;1.45;;;;;;;32.29;15.42;102630.44;1747122;81;21301;-69
2021/10/01 08:36:50;;;;;;;3.02;1.82;;;;;;;32.03;15.34;102632.02;1748358;81;21396;-70
2021/10/01 08:39:28;;;;;;;2.90;1.50;;;;;;;32.09;15.30;102630.31;1742774;81;21922;-72
2021/10/01 08:42:03;;;;;;;8.40;1.80;;;;;;;32.16;15.25;102623.80;1744782;81;21779;-69
2021/10/01 08:44:36;;;;;;;2.75;1.50;;;;;;;32.07;15.30;102629.20;1741625;81;21875;-73
2021/10/01 08:47:12;;;;;;;6.03;2.17;;;;;;;31.62;15.02;102623.02;1742111;81;21949;-71
2021/10/01 08:49:48;;;;;;;1.82;1.50;;;;;;;31.37;15.25;102627.52;1740685;81;21889;-70
2021/10/01 08:52:21;;;;;;;1.70;1.60;;;;;;;31.15;15.51;102624.81;1723400;81;21767;-71
2021/10/01 08:54:55;;;;;;;2.27;1.60;;;;;;;30.54;16.17;102631.95;1746039;81;21193;-70
2021/10/01 08:57:31;;;;;;;2.65;1.80;;;;;;;29.58;16.41;102624.88;1743339;81;21298;-70
2021/10/01 09:00:09;;;;;;;2.15;1.60;;;;;;;29.07;16.87;102619.07;1742326;81;21360;-68
2021/10/01 09:02:42;;;;;;;4.42;1.92;;;;;;;28.95;17.31;102620.67;1747310;81;21348;-68
2021/10/01 09:05:16;;;;;;;2.77;1.65;;;;;;;28.95;17.64;102620.16;1741667;81;21173;-67
2021/10/01 09:07:50;;;;;;;3.27;1.85;;;;;;;28.71;17.33;102619.84;1749694;81;21191;-70
2021/10/01 09:10:22;;;;;;;;;;;;;;;28.34;17.55;102619.66;1747653;81;21186;-70
2021/10/01 09:12:56;;;;;;;2.98;1.60;;;;;;;28.39;18.06;102619.39;1748933;81;20226;-68
2021/10/01 09:15:29;;;;;;;;;;;;;;;28.15;18.05;102615.78;1751924;81;21323;-70
2021/10/01 09:18:03;;;;;;;3.37;2.00;;;;;;;28.03;18.18;102614.64;1745480;81;20591;-70
2021/10/01 09:20:37;;;;;;;3.47;1.90;;;;;;;28.07;18.25;102610.52;1741491;81;21237;-70
2021/10/01 09:23:21;;;;;;;2.52;1.82;;;;;;;28.26;18.94;102607.16;1755629;81;21281;-69
2021/10/01 09:25:56;;;;;;;2.52;1.80;;;;;;;28.08;19.17;102604.62;1746040;81;21199;-69
2021/10/01 09:28:29;;;;;;;2.35;1.87;;;;;;;27.92;19.27;102599.80;1725773;81;21304;-70
2021/10/01 09:31:02;;;;;;;3.65;2.00;;;;;;;27.88;19.61;102601.22;1752190;81;21331;-68
2021/10/01 09:33:36;;;;;;;3.33;2.20;;;;;;;27.63;19.72;102603.15;1742442;82;21185;-68
2021/10/01 09:36:10;;;;;;;3.77;1.98;;;;;;;27.03;20.19;102609.67;1719197;82;21301;-69
2021/10/01 09:38:42;;;;;;;;;;;;;;;26.30;20.87;102603.38;1746915;81;21280;-68
2021/10/01 09:41:22;;;;;;;2.52;1.92;;;;;;;25.70;21.53;102597.48;1743301;81;20626;-73
2021/10/01 09:44:09;;;;;;;2.95;1.92;;;;;;;25.22;22.28;102600.45;1742667;81;22040;-70
2021/10/01 09:46:52;;;;;;;5.87;2.10;;;;;;;24.83;22.11;102598.27;1742831;81;22125;-69
2021/10/01 09:49:33;;;;;;;4.78;2.52;;;;;;;24.45;22.53;102594.00;1742136;81;21335;-71
2021/10/01 09:52:07;;;;;;;12.88;2.62;;;;;;;23.62;23.18;102592.45;1749418;81;21855;-70
2021/10/01 09:54:40;;;;;;;2.42;1.95;;;;;;;22.88;24.21;102592.35;1746636;81;21281;-69
2021/10/01 09:57:13;;;;;;;2.35;2.12;;;;;;;22.44;25.07;102586.25;1746497;81;21332;-68
2021/10/01 09:59:47;;;;;;;3.70;2.37;;;;;;;22.24;25.71;102586.59;1740590;81;21215;-66
2021/10/01 10:02:20;;;;;;;3.37;2.15;;;;;;;21.84;26.02;102589.74;1738366;80;21288;-68
2021/10/01 10:04:54;;;;;;;;;;;;;;;21.25;26.65;102589.83;1737818;81;22245;-69
2021/10/01 10:07:28;;;;;;;6.50;2.10;;;;;;;20.78;26.73;102585.52;1742889;80;20220;-72
2021/10/01 10:10:07;;;;;;;4.20;2.20;;;;;;;20.43;27.34;102588.86;1740343;81;21209;-70
2021/10/01 10:12:44;;;;;;;7.58;2.25;;;;;;;20.18;28.21;102594.25;1735212;80;21769;-64
2021/10/01 10:15:18;;;;;;;4.62;1.95;;;;;;;19.92;28.69;102587.83;1711642;82;21319;-64
2021/10/01 10:17:53;;;;;;;3.92;2.20;;;;;;;19.82;29.20;102590.16;1729392;82;21723;-68
2021/10/01 10:20:28;;;;;;;4.37;3.08;;;;;;;19.69;29.70;102582.45;1726019;82;21866;-63
2021/10/01 10:23:02;;;;;;;3.17;1.98;;;;;;;19.41;29.74;102583.27;1714918;81;21212;-68
2021/10/01 10:25:37;;;;;;;6.72;2.58;;;;;;;19.15;30.15;102593.52;1726433;81;21331;-64
2021/10/01 10:28:16;;;;;;;5.20;2.02;;;;;;;18.78;30.51;102588.39;1732144;82;21716;-67
2021/10/01 10:30:52;;;;;;;7.33;2.50;;;;;;;18.47;31.20;102584.89;1704418;82;21411;-70
2021/10/01 10:33:49;;;;;;;3.17;2.30;;;;;;;18.23;31.83;102584.76;1734935;82;21236;-66
2021/10/01 10:36:38;;;;;;;6.22;2.33;;;;;;;18.07;32.47;102581.24;1739286;82;21268;-69
2021/10/01 10:39:19;;;;;;;5.92;2.80;;;;;;;17.93;32.75;102578.43;1698986;82;21827;-64
2021/10/01 10:42:06;;;;;;;4.47;2.55;;;;;;;17.72;33.16;102579.36;1717807;82;22539;-66
2021/10/01 10:44:48;;;;;;;4.17;2.83;;;;;;;17.52;33.54;102580.98;1736967;82;21129;-67
2021/10/01 10:48:11;;;;;;;5.00;2.62;;;;;;;17.30;33.52;102571.73;1707241;82;21543;-68
2021/10/01 10:50:44;;;;;;;9.08;2.17;;;;;;;17.16;33.76;102579.46;1720649;82;21170;-64
2021/10/01 10:53:21;;;;;;;4.05;2.45;;;;;;;17.02;33.45;102561.67;1740644;80;21343;-63
2021/10/01 10:56:10;;;;;;;2.98;2.17;;;;;;;16.90;34.36;102562.64;1745767;80;21189;-68
2021/10/01 10:58:45;;;;;;;2.83;2.45;;;;;;;16.97;34.41;102564.69;1734898;80;21156;-65
2021/10/01 11:01:25;;;;;;;3.72;2.55;;;;;;;16.99;34.33;102563.23;1737401;80;21182;-67
2021/10/01 11:04:27;;;;;;;3.08;2.08;;;;;;;16.96;34.30;102565.63;1739053;81;21311;-62
2021/10/01 11:06:57;;;;;;;13.30;2.92;;;;;;;17.04;34.74;102565.87;1749532;80;21261;-63
2021/10/01 11:09:32;;;;;;;6.05;2.58;;;;;;;17.09;34.41;102560.22;1741692;80;22271;-63
2021/10/01 11:12:11;;;;;;;3.67;2.87;;;;;;;17.03;34.48;102572.63;1745586;80;21358;-64
2021/10/01 11:14:46;;;;;;;2.40;2.20;;;;;;;16.94;34.26;102566.72;1731497;81;21175;-64
2021/10/01 11:17:19;;;;;;;;;;;;;;;16.89;34.54;102564.91;1743734;80;21315;-66
2021/10/01 11:19:53;;;;;;;3.90;2.60;;;;;;;16.82;34.80;102569.85;1742225;80;20226;-66
2021/10/01 11:22:36;;;;;;;10.28;2.47;;;;;;;16.69;34.71;102566.50;1739008;80;21339;-70
2021/10/01 11:25:17;;;;;;;4.87;2.95;;;;;;;16.61;34.73;102564.45;1738701;80;21304;-68
2021/10/01 11:28:02;;;;;;;3.22;2.62;;;;;;;16.61;35.01;102567.56;1739805;80;21321;-69
2021/10/01 11:30:37;;;;;;;12.33;6.78;;;;;;;16.61;35.29;102560.48;1741620;80;21327;-68
2021/10/01 11:33:14;;;;;;;9.98;4.80;;;;;;;16.66;35.63;102557.47;1740571;80;21284;-66
2021/10/01 11:35:49;;;;;;;47.70;20.62;;;;;;;16.73;35.24;102556.03;1741237;81;21310;-62
2021/10/01 11:38:33;;;;;;;6.53;3.40;;;;;;;16.82;35.21;102550.02;1745675;80;21204;-63
2021/10/01 11:41:15;;;;;;;8.73;3.87;;;;;;;16.82;35.12;102552.18;1742039;81;21763;-68
2021/10/01 11:43:52;;;;;;;8.28;4.78;;;;;;;16.77;35.37;102547.73;1746033;80;21248;-71
2021/10/01 11:46:35;;;;;;;5.42;4.00;;;;;;;16.78;35.02;102547.25;1741928;81;21288;-69
2021/10/01 11:49:21;;;;;;;6.80;3.00;;;;;;;16.72;34.76;102545.92;1743378;80;21292;-69
2021/10/01 11:52:12;;;;;;;5.20;3.52;;;;;;;16.61;34.83;102547.73;1749505;80;22000;-67
2021/10/01 11:54:57;;;;;;;4.05;2.33;;;;;;;16.40;35.23;102545.40;1741751;80;21880;-67
2021/10/01 11:57:39;;;;;;;7.15;2.58;;;;;;;16.23;35.51;102545.84;1745736;80;21235;-69
2021/10/01 12:00:14;;;;;;;4.28;1.72;;;;;;;16.14;36.00;102540.80;1739421;80;21377;-66
2021/10/01 12:02:49;;;;;;;6.75;2.92;;;;;;;16.16;36.12;102542.36;1742176;80;21150;-67
2021/10/01 12:05:33;;;;;;;4.47;2.70;;;;;;;16.19;36.51;102536.82;1743039;81;21299;-67
2021/10/01 12:08:14;;;;;;;3.70;2.12;;;;;;;16.23;36.36;102540.56;1741016;80;21185;-64
2021/10/01 12:10:51;;;;;;;2.62;2.17;;;;;;;16.24;36.42;102533.01;1709409;82;21253;-70
2021/10/01 12:13:29;;;;;;;4.92;2.17;;;;;;;16.20;36.17;102532.38;1748197;80;21138;-65
2021/10/01 12:16:05;;;;;;;3.77;2.20;;;;;;;16.14;36.29;102536.83;1721744;81;22325;-63
2021/10/01 12:19:05;;;;;;;5.28;2.22;;;;;;;16.02;36.21;102539.08;1714216;81;21280;-62
2021/10/01 12:21:36;;;;;;;4.72;2.40;;;;;;;15.84;36.71;102532.52;1720236;81;21319;-64
2021/10/01 12:24:14;;;;;;;8.43;2.55;;;;;;;15.66;36.98;102536.07;1723069;81;21347;-68
2021/10/01 12:26:49;;;;;;;2.58;1.90;;;;;;;15.56;37.59;102538.17;1715632;82;21789;-65
2021/10/01 12:29:26;;;;;;;3.22;2.30;;;;;;;15.48;37.51;102544.01;1706061;81;21348;-68
2021/10/01 12:32:03;;;;;;;8.58;2.60;;;;;;;15.43;37.50;102541.67;1721519;83;21709;-68
2021/10/01 12:34:43;;;;;;;6.97;2.77;;;;;;;15.42;37.60;102537.37;1731439;80;21290;-66
2021/10/01 12:37:21;;;;;;;4.60;2.80;;;;;;;15.49;37.84;102530.72;1716202;82;21249;-68
2021/10/01 12:40:03;;;;;;;11.12;3.67;;;;;;;15.58;37.61;102527.86;1708171;83;21288;-68
2021/10/01 12:42:41;;;;;;;6.12;2.55;;;;;;;15.66;37.88;102525.98;1740819;80;21383;-62
2021/10/01 12:45:17;;;;;;;7.50;3.92;;;;;;;15.74;37.67;102532.36;1707364;83;21370;-65
2021/10/01 12:47:51;;;;;;;8.23;3.37;;;;;;;15.77;37.87;102524.22;1733117;81;21292;-64
2021/10/01 12:50:32;;;;;;;12.05;3.00;;;;;;;15.75;38.14;102534.53;1733938;81;21391;-67
2021/10/01 12:53:06;;;;;;;3.65;2.55;;;;;;;15.68;37.87;102523.59;1684563;83;21289;-66
2021/10/01 12:55:39;;;;;;;;;;;;;;;15.62;38.01;102524.53;1740854;81;21843;-65
2021/10/01 12:58:15;;;;;;;5.97;3.12;;;;;;;15.57;38.34;102531.95;1704217;81;20294;-61
2021/10/01 13:00:49;;;;;;;7.60;2.72;;;;;;;15.53;38.09;102528.67;1712999;81;21299;-68
2021/10/01 13:03:23;;;;;;;6.92;3.05;;;;;;;15.48;38.38;102523.73;1700810;83;21195;-66
2021/10/01 13:05:57;;;;;;;4.72;2.72;;;;;;;15.48;38.44;102522.89;1716403;82;21852;-64
2021/10/01 13:08:33;;;;;;;4.42;2.83;;;;;;;15.44;38.51;102524.93;1715811;81;21296;-64
2021/10/01 13:11:06;;;;;;;6.37;2.85;;;;;;;15.40;38.55;102520.77;1721231;82;21347;-64
2021/10/01 13:13:41;;;;;;;4.45;2.60;;;;;;;15.38;38.56;102520.05;1728315;80;21286;-67
2021/10/01 13:16:17;;;;;;;3.35;2.58;;;;;;;15.37;38.35;102521.02;1712295;83;21337;-66
2021/10/01 13:19:11;;;;;;;14.20;4.08;;;;;;;15.34;38.77;102521.71;1705876;82;21299;-65
2021/10/01 13:21:42;;;;;;;4.33;3.12;;;;;;;15.30;39.44;102517.62;1735255;82;22199;-64
2021/10/01 13:24:15;;;;;;;28.12;4.90;;;;;;;15.28;39.62;102522.17;1713315;83;21261;-63
2021/10/01 13:26:49;;;;;;;5.50;3.10;;;;;;;15.31;39.95;102510.90;1683221;82;21314;-65
2021/10/01 13:29:21;;;;;;;7.10;4.70;;;;;;;15.38;39.99;102513.45;1746508;81;21377;-65
2021/10/01 13:31:58;;;;;;;;;;;;;;;15.48;39.78;102509.22;1713413;82;21353;-66
2021/10/01 13:34:32;;;;;;;4.00;2.67;;;;;;;15.58;39.66;102509.86;1710140;83;20715;-65
2021/10/01 13:37:05;;;;;;;6.33;2.30;;;;;;;15.64;39.46;102506.30;1710291;82;21397;-65